Rechercher aéroport 
image banner adimage banner adimage banner ad
image banner ad

9CL7 - Old Aerodrome

Situé à Marysville, United States

ICAO - 9CL7, IATA -

Données fournies par Airmate  

Information générale

Coordonnées: N39°19'30" W121°21'34"
Élévation : 700 feet MSL.
Variation magnétique : 16° East
Voir autres Aéroports à California

Données opérationnelles

Special qualification required
Heure actuelle UTC:
Heure actuelle locale:
Météo à : KBAB - Beale Afb ( 22 km )
METAR: KBAB 262156Z AUTO 17009KT 10SM FEW230 30/10 A2981 RMK AO2 SLP097 T02970103 $
TAF: TAF KBAB 261900Z 2619/2801 18010G15KT 9999 BKN150 QNH2978INS BECMG 2705/2706 15009KT 9999 BKN160 QNH2988INS BECMG 2711/2712 15009KT 9999 OVC120 QNH2993INS BECMG 2717/2718 33009KT 9999 BKN100 QNH2996INS BECMG 2721/2722 33009KT 9000 FU FEW030 SCT110 QNH2991INS TX30/2700Z TN17/2713Z
Voir NOTAMs / SUP AIP / TFR affectant cet aéroport [VIEW]
Fréquences de communication: [VIEW]

Pistes:

Identifiant RWYQFULongueur (ft)Largeur (ft)SurfaceLDA (ft)
162300100GRASS
342300100GRASS

Coordonnées de l'aéroport

Adresse: Marysville United States

Vue satellite de 9CL7